Latest Weather Observations for Neptune Island

IDS60801

Issued at 8:01 am CDT Tuesday 17 January 2017 (issued every 30 minutes, with the page automatically refreshed every 10 minutes)

About weather observations | Map of weather stations | Latest weather observations for SA | Other Formats
Station Details ID: 018115 Name: NEPTUNE ISLAND Lat: -35.34 Lon: 136.12 Height: 32.0 m
Data from the previous 72 hours. | See also: Recent months at Neptune Island
Date/Time
CDT
Temp
°C
App
Temp
°C
Dew
Point
°C
Rel
Hum
%
Delta-T
°C
Wind Press
QNH
hPa
Press
MSL
hPa
Rain since
9am
mm
Dir  Spd
km/h
Gust
km/h
Spd
kts
Gust
kts
17/08:00am 21.2 20.6 17.6 80 2.2 NNE 17 20 9 11 1006.1 1006.0 0.0
17/07:30am 21.3 20.8 17.7 80 2.2 NE 17 22 9 12 1005.9 1005.8 0.0
17/07:00am 21.0 20.4 17.6 81 2.1 NE 17 22 9 12 1005.8 1005.7 0.0
17/06:30am 21.1 20.6 17.9 82 2.0 NE 17 24 9 13 1005.5 1005.4 0.0
17/06:00am 21.0 20.1 17.8 82 2.0 NE 19 24 10 13 1005.2 1005.1 0.0
17/05:30am 21.3 18.7 17.7 80 2.2 ENE 28 30 15 16 1005.2 1005.1 0.0
17/05:00am 21.5 19.6 17.7 79 2.4 ENE 24 28 13 15 1005.3 1005.2 0.0
17/04:30am 21.7 21.3 17.1 75 2.8 E 15 17 8 9 1005.9 1005.8 0.0
17/04:00am 21.4 21.4 17.2 77 2.6 E 13 17 7 9 1006.1 1006.0 0.0
17/03:30am 21.8 21.0 17.2 75 2.8 ENE 17 19 9 10 1005.8 1005.7 0.0
17/03:00am 21.1 20.4 16.3 74 2.9 ENE 15 17 8 9 1006.3 1006.2 0.0
17/02:30am 22.1 20.5 16.1 69 3.6 NE 19 20 10 11 1006.6 1006.5 0.0
17/02:00am 21.1 20.6 16.9 77 2.6 ENE 15 17 8 9 1007.1 1007.0 0.0
17/01:30am 21.2 19.6 16.6 75 2.8 NE 20 22 11 12 1007.2 1007.1 0.0
17/01:00am 21.9 20.9 16.6 72 3.2 ENE 17 20 9 11 1007.6 1007.5 0.0
17/12:30am 21.6 20.5 17.2 76 2.7 NE 19 22 10 12 1007.8 1007.7 0.0
17/12:00am 21.1 20.5 17.5 80 2.2 NE 17 20 9 11 1008.1 1008.0 0.0
 
Date/Time
CDT
Temp
°C
App
Temp
°C
Dew
Point
°C
Rel
Hum
%
Delta-T
°C
Wind Press
QNH
hPa
Press
MSL
hPa
Rain since
9am
mm
Dir  Spd
km/h
Gust
km/h
Spd
kts
Gust
kts
16/11:30pm 21.4 20.3 17.4 78 2.5 NE 19 22 10 12 1008.3 1008.2 0.0
16/11:00pm 21.3 20.4 17.7 80 2.2 ENE 19 20 10 11 1008.5 1008.4 0.0
16/10:30pm 21.0 20.5 17.8 82 2.0 ENE 17 19 9 10 1008.7 1008.6 0.0
16/10:00pm 21.3 20.8 17.9 81 2.1 ENE 17 20 9 11 1008.7 1008.6 0.0
16/09:30pm 21.1 21.5 18.1 83 1.9 ENE 13 15 7 8 1008.8 1008.7 0.0
16/09:00pm 21.2 21.8 18.6 85 1.6 ENE 13 15 7 8 1008.8 1008.7 0.0
16/08:30pm 21.2 21.1 18.8 86 1.5 ENE 17 19 9 10 1008.9 1008.8 0.0
16/08:00pm 21.9 22.5 19.5 86 1.5 ENE 15 19 8 10 1008.8 1008.7 0.0
16/07:30pm 22.3 22.7 19.8 86 1.6 ENE 17 20 9 11 1008.6 1008.5 0.0
16/07:00pm 22.2 22.9 19.6 85 1.7 ENE 15 17 8 9 1008.6 1008.5 0.0
16/06:30pm 22.7 23.4 18.9 79 2.4 ENE 13 15 7 8 1008.5 1008.4 0.0
16/06:00pm 23.1 24.1 18.6 76 2.8 ENE 11 15 6 8 1008.6 1008.5 0.0
16/05:30pm 24.2 25.8 19.9 77 2.8 NE 11 15 6 8 1008.7 1008.6 0.0
16/05:00pm 23.8 25.3 19.7 78 2.6 NE 11 15 6 8 1008.9 1008.8 0.0
16/04:30pm 23.7 25.2 19.8 79 2.5 NE 11 17 6 9 1009.0 1008.9 0.0
16/04:00pm 23.6 24.6 19.5 78 2.6 NE 13 19 7 10 1008.9 1008.8 0.0
16/03:30pm 23.8 24.9 19.7 78 2.6 NE 13 17 7 9 1009.1 1009.0 0.0
16/03:00pm 24.4 25.4 20.3 78 2.7 NE 15 20 8 11 1009.2 1009.1 0.0
16/02:30pm 24.3 25.1 20.6 80 2.4 NE 17 20 9 11 1009.6 1009.5 0.0
16/02:00pm 23.7 24.0 20.4 82 2.1 NE 19 22 10 12 1009.9 1009.8 0.0
16/01:30pm 22.5 22.4 19.5 83 1.9 ENE 19 20 10 11 1010.3 1010.2 0.0
16/01:00pm 23.5 24.4 20.0 81 2.3 NE 15 20 8 11 1010.6 1010.5 0.0
16/12:30pm 21.6 22.1 18.4 82 2.0 NE 13 17 7 9 1010.8 1010.7 0.0
16/12:00pm 22.1 22.8 18.9 82 2.0 NE 13 17 7 9 1010.9 1010.8 0.0
16/11:30am 21.9 22.6 18.9 83 1.9 NE 13 17 7 9 1011.1 1011.0 0.0
16/11:00am 21.4 21.1 18.2 82 2.0 NE 17 24 9 13 1011.3 1011.2 0.0
16/10:30am 21.2 20.8 18.0 82 2.0 NE 17 24 9 13 1011.4 1011.3 0.0
16/10:00am 21.2 20.8 18.0 82 2.0 NE 17 20 9 11 1012.0 1012.0 0.0
16/09:30am 20.5 20.0 17.7 84 1.7 NE 17 20 9 11 1012.2 1012.2 0.0
16/09:00am 20.2 19.1 17.4 84 1.7 NE 19 22 10 12 1012.0 1012.0 0.0
16/08:30am 19.7 18.7 17.5 87 1.3 NE 19 22 10 12 1012.2 1012.2 0.0
16/08:00am 19.2 18.4 17.2 88 1.2 ENE 17 20 9 11 1012.2 1012.2 0.0
16/07:30am 18.8 17.1 17.1 90 1.0 NE 22 28 12 15 1012.1 1012.1 0.0
16/07:00am 18.4 16.1 16.7 90 1.0 ENE 24 28 13 15 1011.7 1011.7 0.0
16/06:30am 18.2 15.9 16.7 91 0.9 ENE 24 30 13 16 1011.7 1011.7 0.0
16/06:00am 18.1 15.0 16.6 91 0.9 ENE 28 30 15 16 1011.8 1011.8 0.0
16/05:30am 18.0 15.3 16.5 91 0.9 ENE 26 30 14 16 1011.8 1011.8 0.0
16/05:00am 17.8 14.9 16.1 90 1.0 ENE 26 30 14 16 1011.9 1011.9 0.0
16/04:30am 17.7 15.1 16.0 90 1.0 E 24 28 13 15 1011.9 1011.9 0.0
16/04:00am 17.6 14.6 15.8 89 1.1 E 26 30 14 16 1012.0 1012.0 0.0
16/03:30am 17.6 13.7 15.6 88 1.2 E 30 33 16 18 1012.1 1012.1 0.0
16/03:00am 17.5 13.0 15.0 85 1.5 E 32 35 17 19 1012.2 1012.2 0.0
16/02:30am 17.6 13.5 15.0 85 1.5 ENE 30 35 16 19 1012.4 1012.4 0.0
16/02:00am 17.7 14.5 15.3 86 1.4 E 26 30 14 16 1012.7 1012.7 0.0
16/01:30am 17.6 14.3 15.0 85 1.5 E 26 28 14 15 1013.1 1013.1 0.0
16/01:00am 17.5 15.3 14.8 84 1.6 E 20 24 11 13 1013.5 1013.5 0.0
16/12:30am 17.7 15.5 14.8 83 1.7 E 20 24 11 13 1013.9 1013.9 0.0
16/12:00am 17.7 15.6 14.6 82 1.8 E 19 20 10 11 1014.1 1014.1 0.0
 
Date/Time
CDT
Temp
°C
App
Temp
°C
Dew
Point
°C
Rel
Hum
%
Delta-T
°C
Wind Press
QNH
hPa
Press
MSL
hPa
Rain since
9am
mm
Dir  Spd
km/h
Gust
km/h
Spd
kts
Gust
kts
15/11:30pm 17.8 16.5 14.9 83 1.7 ESE 15 19 8 10 1014.4 1014.4 0.0
15/11:00pm 18.1 17.0 15.2 83 1.7 SE 15 15 8 8 1014.6 1014.6 0.0
15/10:30pm 18.2 16.3 15.3 83 1.7 SSE 19 22 10 12 1014.8 1014.8 0.0
15/10:00pm 17.7 15.3 14.4 81 1.9 SSE 20 26 11 14 1014.9 1014.9 0.0
15/09:30pm 17.7 14.8 14.0 79 2.1 SSE 22 28 12 15 1015.2 1015.2 0.0
15/09:00pm 17.7 13.9 13.6 77 2.3 SSE 26 32 14 17 1015.3 1015.3 0.0
15/08:30pm 18.1 14.7 13.8 76 2.5 SSE 24 30 13 16 1015.5 1015.4 0.0
15/08:00pm 18.7 15.6 14.4 76 2.5 SSE 24 28 13 15 1015.7 1015.6 0.0
15/07:30pm 18.9 16.0 14.0 73 2.8 SSE 22 26 12 14 1015.6 1015.5 0.0
15/07:00pm 18.9 16.2 13.5 71 3.1 SSE 20 26 11 14 1015.9 1015.8 0.0
15/06:30pm 19.5 17.1 13.7 69 3.3 SSE 19 22 10 12 1016.0 1015.9 0.0
15/06:00pm 19.3 16.7 13.3 68 3.4 S 19 20 10 11 1016.2 1016.1 0.0
15/05:30pm 19.4 17.1 13.1 67 3.6 SSE 17 22 9 12 1016.6 1016.5 0.0
15/05:00pm 20.0 18.0 13.9 68 3.5 S 17 20 9 11 1016.8 1016.7 0.0
15/04:30pm 19.9 18.0 12.9 64 4.0 SSE 15 17 8 9 1017.2 1017.1 0.0
15/04:00pm 20.1 18.3 13.3 65 3.9 SSE 15 19 8 10 1017.3 1017.2 0.0
15/03:30pm 20.1 18.7 13.3 65 3.9 SSE 13 19 7 10 1017.6 1017.5 0.0
15/03:00pm 20.1 18.5 12.8 63 4.1 SSE 13 17 7 9 1018.0 1017.9 0.0
15/02:30pm 20.3 18.4 13.0 63 4.1 SSE 15 19 8 10 1018.2 1018.1 0.0
15/02:00pm 20.3 18.6 12.5 61 4.4 SE 13 17 7 9 1018.6 1018.5 0.0
15/01:30pm 20.4 18.5 12.9 62 4.2 SE 15 20 8 11 1018.9 1018.8 0.0
15/01:00pm 20.5 18.9 12.7 61 4.4 ESE 13 17 7 9 1019.1 1019.0 0.0
15/12:30pm 19.6 18.3 12.4 63 4.0 SE 11 15 6 8 1019.4 1019.3 0.0
15/12:00pm 19.6 18.2 12.1 62 4.2 SE 11 15 6 8 1019.4 1019.3 0.0
15/11:30am 19.7 18.8 12.7 64 3.9 SSE 9 11 5 6 1019.5 1019.4 0.0
15/11:00am 18.9 17.7 11.5 62 4.1 E 9 17 5 9 1019.6 1019.5 0.0
15/10:30am 18.4 16.1 11.7 65 3.7 E 15 20 8 11 1019.9 1019.8 0.0
15/10:00am 17.8 17.0 11.6 67 3.4 NE 7 13 4 7 1020.3 1020.2 0.0
15/09:30am 17.8 16.3 12.0 69 3.2 ENE 11 15 6 8 1020.2 1020.1 0.0
15/09:00am 17.2 15.2 11.5 69 3.1 NE 13 20 7 11 1020.2 1020.1 0.0
15/08:30am 16.7 15.1 11.4 71 2.9 ENE 11 17 6 9 1020.3 1020.2 0.0
15/08:00am 16.6 15.4 11.7 73 2.7 ESE 9 13 5 7 1020.0 1019.9 0.0
15/07:30am 16.3 14.7 11.5 73 2.6 SE 11 15 6 8 1019.7 1019.6 0.0
15/07:00am 16.2 14.6 11.4 73 2.6 E 11 17 6 9 1019.5 1019.4 0.0
15/06:30am 16.2 14.6 11.6 74 2.5 ESE 11 15 6 8 1019.3 1019.2 0.0
15/06:00am 16.1 14.9 11.5 74 2.5 ESE 9 15 5 8 1018.9 1018.8 0.0
15/05:30am 16.2 13.9 11.6 74 2.5 E 15 20 8 11 1018.7 1018.6 0.0
15/05:00am 16.5 13.9 11.9 74 2.5 SE 17 24 9 13 1018.4 1018.3 0.0
15/04:30am 16.2 14.2 11.4 73 2.6 SE 13 20 7 11 1018.2 1018.1 0.0
15/04:00am 16.4 13.2 11.8 74 2.5 SE 20 28 11 15 1017.8 1017.7 0.0
15/03:30am 16.5 13.5 12.1 75 2.4 SSE 19 26 10 14 1017.9 1017.8 0.0
15/03:00am 16.2 12.6 11.8 75 2.4 SSE 22 32 12 17 1018.0 1017.9 0.0
15/02:30am 16.5 13.9 12.1 75 2.4 S 17 24 9 13 1018.5 1018.4 0.0
15/02:00am 16.7 13.6 12.3 75 2.4 S 20 24 11 13 1018.6 1018.5 0.0
15/01:30am 16.5 14.2 11.9 74 2.5 SSE 15 20 8 11 1018.9 1018.8 0.0
15/01:00am 16.4 13.1 11.6 73 2.6 SSE 20 28 11 15 1019.0 1018.9 0.0
15/12:30am 16.5 13.4 11.6 73 2.7 S 19 26 10 14 1019.0 1018.9 0.0
15/12:00am 16.5 12.5 11.9 74 2.5 SSE 24 28 13 15 1019.1 1019.0 0.0
 
Date/Time
CDT
Temp
°C
App
Temp
°C
Dew
Point
°C
Rel
Hum
%
Delta-T
°C
Wind Press
QNH
hPa
Press
MSL
hPa
Rain since
9am
mm
Dir  Spd
km/h
Gust
km/h
Spd
kts
Gust
kts
14/11:30pm 16.9 14.0 12.4 75 2.5 SSE 19 24 10 13 1018.9 1018.8 0.0
14/11:00pm 16.6 13.3 11.7 73 2.7 SSE 20 28 11 15 1019.0 1018.9 0.0
14/10:30pm 16.5 12.8 11.4 72 2.8 SSE 22 32 12 17 1019.1 1019.0 0.0
14/10:00pm 16.7 12.6 11.6 72 2.8 S 24 30 13 16 1019.2 1019.1 0.0
14/09:30pm 16.7 12.1 11.2 70 3.0 SSW 26 32 14 17 1018.9 1018.8 0.0
14/09:00pm 16.8 13.0 11.3 70 3.0 S 22 32 12 17 1019.0 1018.9 0.0
14/08:30pm 16.9 12.5 11.6 71 2.9 S 26 30 14 16 1018.7 1018.6 0.0
14/08:00pm 17.0 12.4 11.1 68 3.2 S 26 32 14 17 1018.5 1018.4 0.0
14/07:30pm 17.3 13.2 11.6 69 3.1 SSW 24 35 13 19 1018.3 1018.2 0.0
14/07:00pm 17.5 12.6 11.3 67 3.4 S 28 35 15 19 1018.1 1018.0 0.0
14/06:30pm 17.4 12.4 10.8 65 3.5 S 28 33 15 18 1018.0 1017.9 0.0
14/06:00pm 17.8 13.2 11.1 65 3.6 SSW 26 32 14 17 1018.2 1018.1 0.0
14/05:30pm 17.8 13.0 11.8 68 3.3 S 28 33 15 18 1018.4 1018.3 0.0
14/05:00pm 17.9 13.2 11.9 68 3.3 SSW 28 35 15 19 1018.4 1018.3 0.0
14/04:30pm 18.2 13.0 11.5 65 3.7 SSW 30 35 16 19 1018.4 1018.3 0.0
14/04:00pm 18.4 13.3 11.9 66 3.6 SSW 30 35 16 19 1018.3 1018.2 0.0
14/03:30pm 18.6 13.8 12.8 69 3.2 SW 30 37 16 20 1018.3 1018.2 0.0
14/03:00pm 20.0 15.3 12.0 60 4.4 SW 28 33 15 18 1018.2 1018.1 0.0
14/02:30pm 19.3 14.9 12.8 66 3.7 SSW 28 33 15 18 1018.0 1017.9 0.0
14/02:00pm 19.5 16.4 13.4 68 3.5 SSW 22 30 12 16 1017.9 1017.8 0.0
14/01:30pm 20.2 16.1 12.7 62 4.2 SW 26 35 14 19 1017.8 1017.7 0.0
14/01:00pm 19.3 14.4 11.3 60 4.4 SW 28 35 15 19 1017.5 1017.4 0.0
14/12:30pm 19.2 14.3 11.3 60 4.3 SSW 28 35 15 19 1017.3 1017.2 0.0
14/12:00pm 19.0 13.9 11.8 63 4.0 SSW 30 37 16 20 1016.9 1016.8 0.0
14/11:30am 19.2 14.8 11.7 62 4.1 SW 26 33 14 18 1016.7 1016.6 0.0
14/11:00am 18.9 12.8 11.9 64 3.9 SW 35 44 19 24 1016.4 1016.3 0.0
14/10:30am 19.0 13.7 13.2 69 3.3 SSW 33 43 18 23 1016.0 1015.9 0.0
14/10:00am 18.3 12.8 13.6 74 2.7 SSW 35 46 19 25 1015.5 1015.4 0.0
14/09:30am 17.7 11.6 13.0 74 2.6 SW 37 52 20 28 1015.2 1015.2 0.0
14/09:00am 17.8 10.8 11.1 65 3.6 SSW 39 46 21 25 1014.9 1014.9 0.0
14/08:30am 17.4 9.5 11.4 68 3.3 SW 44 54 24 29 1014.7 1014.7 0.0

Other Formats:

Comma delimited format used in spreadsheet applications
http://www.bom.gov.au/fwo/IDS60801/IDS60801.94804.axf

JavaScript Object Notation format (JSON) in row-major order
http://www.bom.gov.au/fwo/IDS60801/IDS60801.94804.json